Startpagina
METAR-TAF:

METAR-TAF

Vliegvelden :

Bydgoszcz, Polen

breedte: 53-05-48N, lengte: 017-58-40E, hoogte: 72 m

Actueel weer

Dit bericht is 38 minuten geleden gemaakt, om 13:00 UTC
Wind 10 kt uit het noordnoordoosten, variërend tussen het noorden en het oostnoordoosten
Temperatuur 27°C
Vochtigheid 39%
Druk 1021 hPa
Zicht 10 km of meer
geen wolken onder 1500 m en geen cumulonimbus

METAR: EPBY 111300Z 03010KT 360V070 CAVOK 27/12 Q1021

Tijdstip: 15:38 (13:38 UTC)

Verwachting

Dit bericht is 2 uur en het 8 minuten geleden gemaakt, om 11:30 UTC
Verwachting geldig van 11 om 12 UTC tot 12 om 12 UTC
Wind 8 kt uit het noordoosten
Zicht 10 km of meer
geen wolken onder 1500 m en geen cumulonimbus

TAF: EPBY 111130Z 1112/1212 05008KT CAVOK

Waarnemingen en weersverwachtingen van meer dan 4000 vliegvelden (METAR en TAF).

De beschikbare stations zijn de gele en rode punten op de kaart.

Ga met uw muis naar het station om de naam te zien.

Klik dan om waarnemingen en weersverwachtingen te zien.

kaart wijzigen: klik op de groene knoppen met een zwart kruis om in te zoomen, op de groene knop met een streepje om uit te zoomen of op de groene pijlen voor aangrenzende kaarten.


METAR-TAF: